Terminal Aerodrome Forecast
Issued by NWS

Home | Current Version | Previous Version | Text Only | Print | Product List | Glossary On
Versions: 1 2 3 4 5 6 7 8 9 10 11 12 13 14 15 16
000
FTUS45 KSLC 180150 AAA
TAFOGD
TAF AMD
KOGD 180150Z 1802/1824 19011KT P6SM SKC
     FM181200 17012G20KT P6SM BKN120
     FM182100 29011KT P6SM SCT070 BKN100=

USA.gov is the U.S. government's official web portal to all federal, state and local government web resources and services.